sensor_id;sensor_type;location;lat;lon;timestamp;pressure;altitude;pressure_sealevel;temperature;humidity
42633;BME280;28261;53.304;-6.284;2022-11-15T00:01:16;98570.66;;;10.43;100.00
42633;BME280;28261;53.304;-6.284;2022-11-15T00:03:39;98571.34;;;10.45;100.00
42633;BME280;28261;53.304;-6.284;2022-11-15T00:06:02;98556.13;;;10.47;100.00
42633;BME280;28261;53.304;-6.284;2022-11-15T00:08:29;98547.19;;;10.48;100.00
42633;BME280;28261;53.304;-6.284;2022-11-15T00:10:56;98554.97;;;10.49;100.00
42633;BME280;28261;53.304;-6.284;2022-11-15T00:13:19;98539.78;;;10.52;100.00
42633;BME280;28261;53.304;-6.284;2022-11-15T00:15:41;98526.22;;;10.55;100.00
42633;BME280;28261;53.304;-6.284;2022-11-15T00:18:04;98523.41;;;10.56;100.00
42633;BME280;28261;53.304;-6.284;2022-11-15T00:20:27;98505.53;;;10.58;100.00
42633;BME280;28261;53.304;-6.284;2022-11-15T00:22:49;98510.69;;;10.60;100.00
42633;BME280;28261;53.304;-6.284;2022-11-15T00:25:12;98507.38;;;10.66;100.00
42633;BME280;28261;53.304;-6.284;2022-11-15T00:27:35;98497.31;;;10.70;100.00
42633;BME280;28261;53.304;-6.284;2022-11-15T00:29:57;98474.44;;;10.69;100.00
42633;BME280;28261;53.304;-6.284;2022-11-15T00:32:20;98468.16;;;10.70;100.00
42633;BME280;28261;53.304;-6.284;2022-11-15T00:34:43;98462.69;;;10.71;100.00
42633;BME280;28261;53.304;-6.284;2022-11-15T00:37:06;98464.38;;;10.72;100.00
42633;BME280;28261;53.304;-6.284;2022-11-15T00:39:27;98484.63;;;10.81;100.00
42633;BME280;28261;53.304;-6.284;2022-11-15T00:41:51;98464.75;;;10.86;100.00
42633;BME280;28261;53.304;-6.284;2022-11-15T00:44:13;98451.34;;;10.87;100.00
42633;BME280;28261;53.304;-6.284;2022-11-15T00:46:37;98459.13;;;10.89;100.00
42633;BME280;28261;53.304;-6.284;2022-11-15T00:48:59;98439.75;;;10.88;100.00
42633;BME280;28261;53.304;-6.284;2022-11-15T00:51:21;98439.25;;;10.93;100.00
42633;BME280;28261;53.304;-6.284;2022-11-15T00:53:43;98427.84;;;10.92;100.00
42633;BME280;28261;53.304;-6.284;2022-11-15T00:56:05;98421.38;;;10.95;100.00
42633;BME280;28261;53.304;-6.284;2022-11-15T00:58:32;98424.69;;;10.97;100.00
42633;BME280;28261;53.304;-6.284;2022-11-15T01:00:54;98434.94;;;11.00;100.00
42633;BME280;28261;53.304;-6.284;2022-11-15T01:03:17;98418.75;;;11.03;100.00
42633;BME280;28261;53.304;-6.284;2022-11-15T01:05:40;98409.47;;;11.07;100.00
42633;BME280;28261;53.304;-6.284;2022-11-15T01:08:02;98412.13;;;11.07;100.00
42633;BME280;28261;53.304;-6.284;2022-11-15T01:10:24;98400.84;;;11.05;100.00
42633;BME280;28261;53.304;-6.284;2022-11-15T01:12:47;98399.16;;;11.04;100.00
42633;BME280;28261;53.304;-6.284;2022-11-15T01:15:11;98406.81;;;11.07;100.00
42633;BME280;28261;53.304;-6.284;2022-11-15T01:17:34;98389.09;;;11.08;100.00
42633;BME280;28261;53.304;-6.284;2022-11-15T01:19:58;98387.94;;;11.10;100.00
42633;BME280;28261;53.304;-6.284;2022-11-15T01:22:21;98384.28;;;11.11;100.00
42633;BME280;28261;53.304;-6.284;2022-11-15T01:24:43;98393.72;;;11.14;100.00
42633;BME280;28261;53.304;-6.284;2022-11-15T01:27:05;98374.34;;;11.13;100.00
42633;BME280;28261;53.304;-6.284;2022-11-15T01:29:28;98376.16;;;11.13;100.00
42633;BME280;28261;53.304;-6.284;2022-11-15T01:31:52;98361.75;;;11.15;100.00
42633;BME280;28261;53.304;-6.284;2022-11-15T01:34:15;98358.09;;;11.16;100.00
42633;BME280;28261;53.304;-6.284;2022-11-15T01:36:37;98365.72;;;11.20;100.00
42633;BME280;28261;53.304;-6.284;2022-11-15T01:39:00;98352.63;;;11.18;100.00
42633;BME280;28261;53.304;-6.284;2022-11-15T01:41:24;98370.19;;;11.19;100.00
42633;BME280;28261;53.304;-6.284;2022-11-15T01:43:48;98355.13;;;11.20;100.00
42633;BME280;28261;53.304;-6.284;2022-11-15T01:46:27;98357.78;;;11.20;100.00
42633;BME280;28261;53.304;-6.284;2022-11-15T01:48:59;98357.59;;;11.21;100.00
42633;BME280;28261;53.304;-6.284;2022-11-15T01:51:25;98358.44;;;11.22;100.00
42633;BME280;28261;53.304;-6.284;2022-11-15T01:53:53;98353.81;;;11.24;100.00
42633;BME280;28261;53.304;-6.284;2022-11-15T01:56:20;98359.75;;;11.26;100.00
42633;BME280;28261;53.304;-6.284;2022-11-15T01:58:45;98447.09;;;11.27;100.00
42633;BME280;28261;53.304;-6.284;2022-11-15T02:01:07;98441.63;;;11.21;100.00
42633;BME280;28261;53.304;-6.284;2022-11-15T02:03:35;98455.16;;;10.93;100.00
42633;BME280;28261;53.304;-6.284;2022-11-15T02:06:02;98463.97;;;10.59;100.00
42633;BME280;28261;53.304;-6.284;2022-11-15T02:08:25;98466.25;;;10.27;100.00
42633;BME280;28261;53.304;-6.284;2022-11-15T02:10:47;98463.31;;;10.04;100.00
42633;BME280;28261;53.304;-6.284;2022-11-15T02:13:10;98469.63;;;9.85;100.00
42633;BME280;28261;53.304;-6.284;2022-11-15T02:15:38;98481.59;;;9.71;100.00
42633;BME280;28261;53.304;-6.284;2022-11-15T02:18:11;98488.09;;;9.59;100.00
42633;BME280;28261;53.304;-6.284;2022-11-15T02:20:56;98486.50;;;9.48;100.00
42633;BME280;28261;53.304;-6.284;2022-11-15T02:26:38;98489.16;;;9.30;100.00
42633;BME280;28261;53.304;-6.284;2022-11-15T02:29:07;98493.66;;;9.20;100.00
42633;BME280;28261;53.304;-6.284;2022-11-15T02:31:39;98492.59;;;9.12;100.00
42633;BME280;28261;53.304;-6.284;2022-11-15T02:34:08;98491.22;;;9.08;100.00
42633;BME280;28261;53.304;-6.284;2022-11-15T02:36:40;98501.13;;;9.06;100.00
42633;BME280;28261;53.304;-6.284;2022-11-15T02:39:10;98498.75;;;9.03;100.00
42633;BME280;28261;53.304;-6.284;2022-11-15T02:41:40;98504.34;;;9.00;100.00
42633;BME280;28261;53.304;-6.284;2022-11-15T02:44:07;98503.69;;;8.98;100.00
42633;BME280;28261;53.304;-6.284;2022-11-15T02:46:37;98506.75;;;8.93;100.00
42633;BME280;28261;53.304;-6.284;2022-11-15T02:49:18;98514.13;;;8.90;100.00
42633;BME280;28261;53.304;-6.284;2022-11-15T02:51:43;98517.78;;;8.89;100.00
42633;BME280;28261;53.304;-6.284;2022-11-15T02:54:06;98517.78;;;8.89;100.00
42633;BME280;28261;53.304;-6.284;2022-11-15T02:56:28;98525.00;;;8.87;100.00
42633;BME280;28261;53.304;-6.284;2022-11-15T02:59:09;98523.31;;;8.86;100.00
42633;BME280;28261;53.304;-6.284;2022-11-15T03:01:50;98529.75;;;8.83;100.00
42633;BME280;28261;53.304;-6.284;2022-11-15T03:04:24;98515.03;;;8.80;100.00
42633;BME280;28261;53.304;-6.284;2022-11-15T03:06:53;98516.16;;;8.78;100.00
42633;BME280;28261;53.304;-6.284;2022-11-15T03:09:24;98517.28;;;8.75;100.00
42633;BME280;28261;53.304;-6.284;2022-11-15T03:11:57;98513.94;;;8.73;100.00
42633;BME280;28261;53.304;-6.284;2022-11-15T03:14:26;98510.91;;;8.68;100.00
42633;BME280;28261;53.304;-6.284;2022-11-15T03:16:58;98515.50;;;8.66;100.00
42633;BME280;28261;53.304;-6.284;2022-11-15T03:19:27;98509.53;;;8.64;100.00
42633;BME280;28261;53.304;-6.284;2022-11-15T03:21:52;98515.94;;;8.61;100.00
42633;BME280;28261;53.304;-6.284;2022-11-15T03:24:19;98516.09;;;8.60;100.00
42633;BME280;28261;53.304;-6.284;2022-11-15T03:26:48;98522.34;;;8.59;100.00
42633;BME280;28261;53.304;-6.284;2022-11-15T03:29:15;98521.53;;;8.58;100.00
42633;BME280;28261;53.304;-6.284;2022-11-15T03:31:41;98518.72;;;8.60;100.00
42633;BME280;28261;53.304;-6.284;2022-11-15T03:34:19;98515.09;;;8.61;100.00
42633;BME280;28261;53.304;-6.284;2022-11-15T03:36:43;98524.00;;;8.60;100.00
42633;BME280;28261;53.304;-6.284;2022-11-15T03:39:07;98525.94;;;8.58;100.00
42633;BME280;28261;53.304;-6.284;2022-11-15T03:41:34;98530.41;;;8.57;100.00
42633;BME280;28261;53.304;-6.284;2022-11-15T03:44:02;98521.78;;;8.55;100.00
42633;BME280;28261;53.304;-6.284;2022-11-15T03:46:31;98521.78;;;8.55;100.00
42633;BME280;28261;53.304;-6.284;2022-11-15T03:48:59;98516.66;;;8.54;100.00
42633;BME280;28261;53.304;-6.284;2022-11-15T03:51:26;98520.13;;;8.54;100.00
42633;BME280;28261;53.304;-6.284;2022-11-15T03:53:49;98515.69;;;8.55;100.00
42633;BME280;28261;53.304;-6.284;2022-11-15T03:56:12;98515.69;;;8.55;100.00
42633;BME280;28261;53.304;-6.284;2022-11-15T03:58:34;98520.97;;;8.55;100.00
42633;BME280;28261;53.304;-6.284;2022-11-15T04:00:55;98511.38;;;8.54;100.00
42633;BME280;28261;53.304;-6.284;2022-11-15T04:03:18;98512.19;;;8.54;100.00
42633;BME280;28261;53.304;-6.284;2022-11-15T04:05:39;98508.72;;;8.54;100.00
42633;BME280;28261;53.304;-6.284;2022-11-15T04:08:03;98501.94;;;8.51;100.00
42633;BME280;28261;53.304;-6.284;2022-11-15T04:10:25;98494.00;;;8.51;100.00
42633;BME280;28261;53.304;-6.284;2022-11-15T04:12:47;98493.34;;;8.49;100.00
42633;BME280;28261;53.304;-6.284;2022-11-15T04:15:11;98490.00;;;8.47;100.00
42633;BME280;28261;53.304;-6.284;2022-11-15T04:17:35;98490.13;;;8.45;100.00
42633;BME280;28261;53.304;-6.284;2022-11-15T04:19:57;98494.84;;;8.42;100.00
42633;BME280;28261;53.304;-6.284;2022-11-15T04:22:36;98487.91;;;8.41;100.00
42633;BME280;28261;53.304;-6.284;2022-11-15T04:25:16;98493.47;;;8.38;100.00
42633;BME280;28261;53.304;-6.284;2022-11-15T04:27:43;98491.81;;;8.37;100.00
42633;BME280;28261;53.304;-6.284;2022-11-15T04:30:06;98504.31;;;8.35;100.00
42633;BME280;28261;53.304;-6.284;2022-11-15T04:32:28;98493.91;;;8.33;100.00
42633;BME280;28261;53.304;-6.284;2022-11-15T04:34:50;98510.56;;;8.34;100.00
42633;BME280;28261;53.304;-6.284;2022-11-15T04:37:14;98507.91;;;8.34;100.00
42633;BME280;28261;53.304;-6.284;2022-11-15T04:39:36;98517.66;;;8.33;100.00
42633;BME280;28261;53.304;-6.284;2022-11-15T04:41:59;98524.63;;;8.34;100.00
42633;BME280;28261;53.304;-6.284;2022-11-15T04:44:21;98527.41;;;8.33;100.00
42633;BME280;28261;53.304;-6.284;2022-11-15T04:46:43;98522.94;;;8.33;100.00
42633;BME280;28261;53.304;-6.284;2022-11-15T04:49:05;98518.63;;;8.32;100.00
42633;BME280;28261;53.304;-6.284;2022-11-15T04:51:26;98503.63;;;8.33;100.00
42633;BME280;28261;53.304;-6.284;2022-11-15T04:53:48;98499.31;;;8.32;100.00
42633;BME280;28261;53.304;-6.284;2022-11-15T04:56:10;98498.50;;;8.31;100.00
42633;BME280;28261;53.304;-6.284;2022-11-15T04:58:34;98501.25;;;8.29;100.00
42633;BME280;28261;53.304;-6.284;2022-11-15T05:00:56;98500.44;;;8.29;100.00
42633;BME280;28261;53.304;-6.284;2022-11-15T05:03:18;98497.94;;;8.27;100.00
42633;BME280;28261;53.304;-6.284;2022-11-15T05:05:57;98502.41;;;8.27;100.00
42633;BME280;28261;53.304;-6.284;2022-11-15T05:08:19;98500.59;;;8.27;100.00
42633;BME280;28261;53.304;-6.284;2022-11-15T05:10:41;98514.47;;;8.29;100.00
42633;BME280;28261;53.304;-6.284;2022-11-15T05:13:02;98523.09;;;8.32;100.00
42633;BME280;28261;53.304;-6.284;2022-11-15T05:15:25;98517.00;;;8.31;100.00
42633;BME280;28261;53.304;-6.284;2022-11-15T05:17:47;98515.16;;;8.32;100.00
42633;BME280;28261;53.304;-6.284;2022-11-15T05:20:10;98531.81;;;8.32;100.00
42633;BME280;28261;53.304;-6.284;2022-11-15T05:22:32;98542.25;;;8.34;100.00
42633;BME280;28261;53.304;-6.284;2022-11-15T05:24:53;98539.59;;;8.34;100.00
42633;BME280;28261;53.304;-6.284;2022-11-15T05:27:15;98538.78;;;8.33;100.00
42633;BME280;28261;53.304;-6.284;2022-11-15T05:29:37;98536.13;;;8.33;100.00
42633;BME280;28261;53.304;-6.284;2022-11-15T05:32:00;98539.59;;;8.34;100.00
42633;BME280;28261;53.304;-6.284;2022-11-15T05:34:22;98546.69;;;8.33;100.00
42633;BME280;28261;53.304;-6.284;2022-11-15T05:36:46;98552.69;;;8.35;100.00
42633;BME280;28261;53.304;-6.284;2022-11-15T05:39:08;98566.84;;;8.34;100.00
42633;BME280;28261;53.304;-6.284;2022-11-15T05:41:32;98572.00;;;8.36;100.00
42633;BME280;28261;53.304;-6.284;2022-11-15T05:43:54;98576.44;;;8.35;100.00
42633;BME280;28261;53.304;-6.284;2022-11-15T05:46:17;98576.44;;;8.35;100.00
42633;BME280;28261;53.304;-6.284;2022-11-15T05:48:43;98577.41;;;8.34;100.00
42633;BME280;28261;53.304;-6.284;2022-11-15T05:51:06;98581.03;;;8.33;100.00
42633;BME280;28261;53.304;-6.284;2022-11-15T05:53:29;98580.06;;;8.34;100.00
42633;BME280;28261;53.304;-6.284;2022-11-15T05:55:52;98570.47;;;8.33;100.00
42633;BME280;28261;53.304;-6.284;2022-11-15T05:58:13;98568.78;;;8.32;100.00
42633;BME280;28261;53.304;-6.284;2022-11-15T06:00:35;98571.72;;;8.29;100.00
42633;BME280;28261;53.304;-6.284;2022-11-15T06:02:57;98573.53;;;8.28;100.00
42633;BME280;28261;53.304;-6.284;2022-11-15T06:05:20;98575.63;;;8.25;100.00
42633;BME280;28261;53.304;-6.284;2022-11-15T06:07:42;98582.97;;;8.21;99.87
42633;BME280;28261;53.304;-6.284;2022-11-15T06:10:05;98595.50;;;8.19;99.79
42633;BME280;28261;53.304;-6.284;2022-11-15T06:12:27;98591.31;;;8.17;99.41
42633;BME280;28261;53.304;-6.284;2022-11-15T06:14:49;98580.91;;;8.15;99.40
42633;BME280;28261;53.304;-6.284;2022-11-15T06:17:11;98572.44;;;8.11;99.30
42633;BME280;28261;53.304;-6.284;2022-11-15T06:19:33;98577.03;;;8.09;99.05
42633;BME280;28261;53.304;-6.284;2022-11-15T06:21:56;98593.81;;;8.08;98.83
42633;BME280;28261;53.304;-6.284;2022-11-15T06:24:18;98583.41;;;8.07;99.26
42633;BME280;28261;53.304;-6.284;2022-11-15T06:26:40;98576.31;;;8.07;99.50
42633;BME280;28261;53.304;-6.284;2022-11-15T06:29:02;98581.59;;;8.07;99.26
42633;BME280;28261;53.304;-6.284;2022-11-15T06:31:24;98580.91;;;8.05;99.00
42633;BME280;28261;53.304;-6.284;2022-11-15T06:33:46;98584.53;;;8.04;97.97
42633;BME280;28261;53.304;-6.284;2022-11-15T06:36:10;98585.63;;;8.02;98.02
42633;BME280;28261;53.304;-6.284;2022-11-15T06:38:39;98582.16;;;8.01;98.10
42633;BME280;28261;53.304;-6.284;2022-11-15T06:41:01;98583.81;;;8.02;98.51
42633;BME280;28261;53.304;-6.284;2022-11-15T06:43:23;98585.63;;;8.02;97.72
42633;BME280;28261;53.304;-6.284;2022-11-15T06:45:45;98598.00;;;8.01;97.63
42633;BME280;28261;53.304;-6.284;2022-11-15T06:48:07;98589.38;;;7.99;97.55
42633;BME280;28261;53.304;-6.284;2022-11-15T06:50:29;98593.84;;;7.99;97.79
42633;BME280;28261;53.304;-6.284;2022-11-15T06:52:51;98593.84;;;7.99;97.61
42633;BME280;28261;53.304;-6.284;2022-11-15T06:55:14;98598.41;;;7.96;97.26
42633;BME280;28261;53.304;-6.284;2022-11-15T06:57:36;98600.22;;;7.96;97.78
42633;BME280;28261;53.304;-6.284;2022-11-15T06:59:58;98612.59;;;7.95;97.51
42633;BME280;28261;53.304;-6.284;2022-11-15T07:02:20;98613.56;;;7.94;97.83
42633;BME280;28261;53.304;-6.284;2022-11-15T07:04:42;98615.47;;;7.92;97.04
42633;BME280;28261;53.304;-6.284;2022-11-15T07:07:03;98623.53;;;7.91;97.62
42633;BME280;28261;53.304;-6.284;2022-11-15T07:09:26;98635.06;;;7.90;97.36
42633;BME280;28261;53.304;-6.284;2022-11-15T07:11:49;98627.28;;;7.88;97.86
42633;BME280;28261;53.304;-6.284;2022-11-15T07:14:11;98629.22;;;7.86;98.14
42633;BME280;28261;53.304;-6.284;2022-11-15T07:16:33;98617.16;;;7.84;98.34
42633;BME280;28261;53.304;-6.284;2022-11-15T07:18:56;98628.81;;;7.81;98.11
42633;BME280;28261;53.304;-6.284;2022-11-15T07:21:18;98626.31;;;7.79;98.64
42633;BME280;28261;53.304;-6.284;2022-11-15T07:23:46;98617.53;;;7.79;98.55
42633;BME280;28261;53.304;-6.284;2022-11-15T07:26:09;98619.34;;;7.78;97.99
42633;BME280;28261;53.304;-6.284;2022-11-15T07:28:32;98617.81;;;7.76;98.48
42633;BME280;28261;53.304;-6.284;2022-11-15T07:30:55;98618.78;;;7.75;98.15
42633;BME280;28261;53.304;-6.284;2022-11-15T07:33:17;98618.94;;;7.73;98.32
42633;BME280;28261;53.304;-6.284;2022-11-15T07:35:40;98628.78;;;7.71;98.12
42633;BME280;28261;53.304;-6.284;2022-11-15T07:38:03;98616.84;;;7.67;98.65
42633;BME280;28261;53.304;-6.284;2022-11-15T07:40:26;98608.38;;;7.63;98.28
42633;BME280;28261;53.304;-6.284;2022-11-15T07:42:51;98618.38;;;7.60;98.12
42633;BME280;28261;53.304;-6.284;2022-11-15T07:45:18;98624.84;;;7.56;98.63
42633;BME280;28261;53.304;-6.284;2022-11-15T07:47:45;98630.56;;;7.51;98.39
42633;BME280;28261;53.304;-6.284;2022-11-15T07:50:07;98630.25;;;7.44;98.93
42633;BME280;28261;53.304;-6.284;2022-11-15T07:52:30;98632.34;;;7.41;98.93
42633;BME280;28261;53.304;-6.284;2022-11-15T07:54:52;98622.91;;;7.38;99.42
42633;BME280;28261;53.304;-6.284;2022-11-15T07:57:14;98625.66;;;7.37;99.56
42633;BME280;28261;53.304;-6.284;2022-11-15T07:59:36;98619.69;;;7.35;99.25
42633;BME280;28261;53.304;-6.284;2022-11-15T08:02:00;98628.97;;;7.29;99.50
42633;BME280;28261;53.304;-6.284;2022-11-15T08:04:23;98631.88;;;7.26;99.21
42633;BME280;28261;53.304;-6.284;2022-11-15T08:06:44;98629.47;;;7.23;99.50
42633;BME280;28261;53.304;-6.284;2022-11-15T08:09:07;98638.50;;;7.20;99.88
42633;BME280;28261;53.304;-6.284;2022-11-15T08:11:29;98643.91;;;7.19;99.68
42633;BME280;28261;53.304;-6.284;2022-11-15T08:13:51;98643.06;;;7.18;99.67
42633;BME280;28261;53.304;-6.284;2022-11-15T08:16:14;98644.16;;;7.16;100.00
42633;BME280;28261;53.304;-6.284;2022-11-15T08:18:37;98644.16;;;7.16;100.00
42633;BME280;28261;53.304;-6.284;2022-11-15T08:21:00;98643.47;;;7.14;100.00
42633;BME280;28261;53.304;-6.284;2022-11-15T08:23:23;98629.59;;;7.11;99.84
42633;BME280;28261;53.304;-6.284;2022-11-15T08:25:45;98621.97;;;7.08;99.83
42633;BME280;28261;53.304;-6.284;2022-11-15T08:28:09;98635.25;;;7.07;99.55
42633;BME280;28261;53.304;-6.284;2022-11-15T08:30:36;98648.56;;;7.05;99.37
42633;BME280;28261;53.304;-6.284;2022-11-15T08:32:59;98651.44;;;7.02;99.94
42633;BME280;28261;53.304;-6.284;2022-11-15T08:35:23;98650.63;;;7.02;99.66
42633;BME280;28261;53.304;-6.284;2022-11-15T08:37:48;98661.03;;;7.03;99.45
42633;BME280;28261;53.304;-6.284;2022-11-15T08:40:11;98654.81;;;7.04;99.30
42633;BME280;28261;53.304;-6.284;2022-11-15T08:42:34;98662.56;;;7.06;98.82
42633;BME280;28261;53.304;-6.284;2022-11-15T08:44:56;98656.06;;;7.10;98.45
42633;BME280;28261;53.304;-6.284;2022-11-15T08:47:18;98645.25;;;7.13;97.79
42633;BME280;28261;53.304;-6.284;2022-11-15T08:49:41;98642.34;;;7.16;97.73
42633;BME280;28261;53.304;-6.284;2022-11-15T08:52:04;98641.41;;;7.17;96.90
42633;BME280;28261;53.304;-6.284;2022-11-15T08:54:26;98638.63;;;7.19;95.62
42633;BME280;28261;53.304;-6.284;2022-11-15T08:56:48;98642.13;;;7.19;95.18
42633;BME280;28261;53.304;-6.284;2022-11-15T08:59:10;98631.44;;;7.21;94.84
42633;BME280;28261;53.304;-6.284;2022-11-15T09:01:32;98632.13;;;7.23;94.36
42633;BME280;28261;53.304;-6.284;2022-11-15T09:03:55;98637.25;;;7.24;93.25
42633;BME280;28261;53.304;-6.284;2022-11-15T09:06:17;98640.88;;;7.23;92.90
42633;BME280;28261;53.304;-6.284;2022-11-15T09:08:41;98630.47;;;7.22;93.13
42633;BME280;28261;53.304;-6.284;2022-11-15T09:11:08;98628.94;;;7.19;92.76
42633;BME280;28261;53.304;-6.284;2022-11-15T09:13:31;98620.31;;;7.17;92.82
42633;BME280;28261;53.304;-6.284;2022-11-15T09:15:57;98624.63;;;7.18;93.05
42633;BME280;28261;53.304;-6.284;2022-11-15T09:18:19;98622.00;;;7.18;93.06
42633;BME280;28261;53.304;-6.284;2022-11-15T09:20:43;98617.53;;;7.19;92.85
42633;BME280;28261;53.304;-6.284;2022-11-15T09:23:05;98618.41;;;7.19;92.76
42633;BME280;28261;53.304;-6.284;2022-11-15T09:25:29;98610.34;;;7.21;93.22
42633;BME280;28261;53.304;-6.284;2022-11-15T09:27:51;98609.41;;;7.22;93.16
42633;BME280;28261;53.304;-6.284;2022-11-15T09:30:14;98616.06;;;7.26;93.06
42633;BME280;28261;53.304;-6.284;2022-11-15T09:32:36;98618.41;;;7.29;92.26
42633;BME280;28261;53.304;-6.284;2022-11-15T09:34:59;98611.09;;;7.33;92.08
42633;BME280;28261;53.304;-6.284;2022-11-15T09:37:21;98615.13;;;7.37;nan
42633;BME280;28261;53.304;-6.284;2022-11-15T09:39:43;98605.84;;;7.42;91.23
42633;BME280;28261;53.304;-6.284;2022-11-15T09:42:18;98605.56;;;7.45;90.88
42633;BME280;28261;53.304;-6.284;2022-11-15T09:44:56;98605.72;;;7.54;90.12
42633;BME280;28261;53.304;-6.284;2022-11-15T09:47:35;98602.56;;;7.60;89.86
42633;BME280;28261;53.304;-6.284;2022-11-15T09:50:01;98607.69;;;7.71;89.59
42633;BME280;28261;53.304;-6.284;2022-11-15T09:52:11;98598.13;;;7.80;89.46
42633;BME280;28261;53.304;-6.284;2022-11-15T09:54:23;98596.47;;;7.89;88.69
42633;BME280;28261;53.304;-6.284;2022-11-15T09:56:50;98596.47;;;7.99;87.59
42633;BME280;28261;53.304;-6.284;2022-11-15T09:59:02;98591.34;;;8.07;86.87
42633;BME280;28261;53.304;-6.284;2022-11-15T10:01:16;98593.00;;;8.18;87.26
42633;BME280;28261;53.304;-6.284;2022-11-15T10:03:26;98597.97;;;8.30;86.98
42633;BME280;28261;53.304;-6.284;2022-11-15T10:05:32;98593.53;;;8.41;85.38
42633;BME280;28261;53.304;-6.284;2022-11-15T10:07:49;98593.09;;;8.55;84.49
42633;BME280;28261;53.304;-6.284;2022-11-15T10:09:56;98593.34;;;8.62;84.09
42633;BME280;28261;53.304;-6.284;2022-11-15T10:12:04;98591.78;;;8.69;82.84
42633;BME280;28261;53.304;-6.284;2022-11-15T10:14:11;98592.47;;;8.81;83.37
42633;BME280;28261;53.304;-6.284;2022-11-15T10:16:51;98590.50;;;8.93;81.95
42633;BME280;28261;53.304;-6.284;2022-11-15T10:19:06;98597.56;;;9.02;79.29
42633;BME280;28261;53.304;-6.284;2022-11-15T10:21:17;98598.22;;;9.04;79.76
42633;BME280;28261;53.304;-6.284;2022-11-15T10:23:22;98594.31;;;9.08;79.24
42633;BME280;28261;53.304;-6.284;2022-11-15T10:25:27;98589.72;;;9.10;79.71
42633;BME280;28261;53.304;-6.284;2022-11-15T10:27:31;98588.47;;;9.14;78.54
42633;BME280;28261;53.304;-6.284;2022-11-15T10:29:42;98589.44;;;9.13;79.10
42633;BME280;28261;53.304;-6.284;2022-11-15T10:31:47;98578.16;;;9.11;78.59
42633;BME280;28261;53.304;-6.284;2022-11-15T10:33:51;98579.16;;;9.10;77.99
42633;BME280;28261;53.304;-6.284;2022-11-15T10:36:18;98575.34;;;9.13;77.94
42633;BME280;28261;53.304;-6.284;2022-11-15T10:38:22;98581.75;;;9.20;77.91
42633;BME280;28261;53.304;-6.284;2022-11-15T10:40:26;98581.00;;;9.28;77.10
42633;BME280;28261;53.304;-6.284;2022-11-15T10:42:30;98573.44;;;9.33;76.42
42633;BME280;28261;53.304;-6.284;2022-11-15T10:44:43;98574.81;;;9.37;77.31
42633;BME280;28261;53.304;-6.284;2022-11-15T10:46:49;98563.34;;;9.46;77.68
42633;BME280;28261;53.304;-6.284;2022-11-15T10:49:13;98567.06;;;9.54;76.27
42633;BME280;28261;53.304;-6.284;2022-11-15T10:51:21;98567.59;;;9.57;75.66
42633;BME280;28261;53.304;-6.284;2022-11-15T10:53:31;98568.16;;;9.61;76.73
42633;BME280;28261;53.304;-6.284;2022-11-15T10:55:37;98573.78;;;9.66;76.59
42633;BME280;28261;53.304;-6.284;2022-11-15T10:57:48;98567.22;;;9.70;77.17
42633;BME280;28261;53.304;-6.284;2022-11-15T10:59:57;98565.94;;;9.74;77.74
42633;BME280;28261;53.304;-6.284;2022-11-15T11:02:02;98560.50;;;9.76;77.07
42633;BME280;28261;53.304;-6.284;2022-11-15T11:04:07;98554.91;;;9.79;77.63
42633;BME280;28261;53.304;-6.284;2022-11-15T11:06:13;98558.06;;;9.82;76.88
42633;BME280;28261;53.304;-6.284;2022-11-15T11:08:22;98558.06;;;9.82;76.09
42633;BME280;28261;53.304;-6.284;2022-11-15T11:10:27;98560.06;;;9.80;75.23
42633;BME280;28261;53.304;-6.284;2022-11-15T11:12:50;98563.53;;;9.81;74.08
42633;BME280;28261;53.304;-6.284;2022-11-15T11:14:55;98561.03;;;9.79;73.73
42633;BME280;28261;53.304;-6.284;2022-11-15T11:17:04;98566.47;;;9.78;72.66
42633;BME280;28261;53.304;-6.284;2022-11-15T11:19:32;98555.06;;;9.77;72.84
42633;BME280;28261;53.304;-6.284;2022-11-15T11:21:44;98548.13;;;9.76;72.69
42633;BME280;28261;53.304;-6.284;2022-11-15T11:23:53;98553.56;;;9.75;72.15
42633;BME280;28261;53.304;-6.284;2022-11-15T11:26:05;98541.97;;;9.76;72.63
42633;BME280;28261;53.304;-6.284;2022-11-15T11:28:28;98542.13;;;9.74;70.35
42633;BME280;28261;53.304;-6.284;2022-11-15T11:30:45;98545.09;;;9.71;69.85
42633;BME280;28261;53.304;-6.284;2022-11-15T11:33:08;98536.47;;;9.69;69.41
42633;BME280;28261;53.304;-6.284;2022-11-15T11:35:19;98540.25;;;9.67;69.56
42633;BME280;28261;53.304;-6.284;2022-11-15T11:37:32;98541.22;;;9.65;70.42
42633;BME280;28261;53.304;-6.284;2022-11-15T11:39:46;98533.97;;;9.68;69.96
42633;BME280;28261;53.304;-6.284;2022-11-15T11:41:59;98526.88;;;9.68;69.02
42633;BME280;28261;53.304;-6.284;2022-11-15T11:44:18;98515.44;;;9.68;68.98
42633;BME280;28261;53.304;-6.284;2022-11-15T11:46:37;98504.84;;;9.68;68.77
42633;BME280;28261;53.304;-6.284;2022-11-15T11:48:47;98503.06;;;9.68;68.87
42633;BME280;28261;53.304;-6.284;2022-11-15T11:51:00;98496.78;;;9.69;69.61
42633;BME280;28261;53.304;-6.284;2022-11-15T11:53:09;98502.75;;;9.71;70.41
42633;BME280;28261;53.304;-6.284;2022-11-15T11:55:17;98499.94;;;9.73;70.78
42633;BME280;28261;53.304;-6.284;2022-11-15T11:57:31;98501.63;;;9.74;70.88
42633;BME280;28261;53.304;-6.284;2022-11-15T11:59:41;98505.94;;;9.75;70.15
42633;BME280;28261;53.304;-6.284;2022-11-15T12:01:47;98502.44;;;9.74;70.12
42633;BME280;28261;53.304;-6.284;2022-11-15T12:03:55;98496.63;;;9.71;68.41
42633;BME280;28261;53.304;-6.284;2022-11-15T12:06:02;98506.38;;;9.70;67.97
42633;BME280;28261;53.304;-6.284;2022-11-15T12:08:23;98505.31;;;9.63;66.86
42633;BME280;28261;53.304;-6.284;2022-11-15T12:10:30;98507.31;;;9.61;67.35
42633;BME280;28261;53.304;-6.284;2022-11-15T12:12:41;98501.16;;;9.60;68.09
42633;BME280;28261;53.304;-6.284;2022-11-15T12:14:50;98507.31;;;9.61;68.82
42633;BME280;28261;53.304;-6.284;2022-11-15T12:16:57;98502.03;;;9.61;69.03
42633;BME280;28261;53.304;-6.284;2022-11-15T12:19:03;98495.88;;;9.60;69.48
42633;BME280;28261;53.304;-6.284;2022-11-15T12:21:13;98493.06;;;9.62;69.99
42633;BME280;28261;53.304;-6.284;2022-11-15T12:23:20;98486.16;;;9.61;70.13
42633;BME280;28261;53.304;-6.284;2022-11-15T12:25:31;98487.94;;;9.60;69.87